sensor_id;sensor_type;location;lat;lon;timestamp;pressure;altitude;pressure_sealevel;temperature;humidity
55914;BME280;58179;48.776;9.124;2022-10-03T00:01:41;98146.53;;;10.69;100.00
55914;BME280;58179;48.776;9.124;2022-10-03T00:04:26;98143.56;;;10.66;100.00
55914;BME280;58179;48.776;9.124;2022-10-03T00:07:03;98154.63;;;10.63;100.00
55914;BME280;58179;48.776;9.124;2022-10-03T00:09:52;98152.69;;;10.58;100.00
55914;BME280;58179;48.776;9.124;2022-10-03T00:12:45;98156.00;;;10.54;100.00
55914;BME280;58179;48.776;9.124;2022-10-03T00:15:20;98162.59;;;10.51;100.00
55914;BME280;58179;48.776;9.124;2022-10-03T00:17:59;98170.75;;;10.50;100.00
55914;BME280;58179;48.776;9.124;2022-10-03T00:20:47;98175.81;;;10.51;100.00
55914;BME280;58179;48.776;9.124;2022-10-03T00:23:21;98174.19;;;10.50;100.00
55914;BME280;58179;48.776;9.124;2022-10-03T00:25:57;98172.38;;;10.51;100.00
55914;BME280;58179;48.776;9.124;2022-10-03T00:28:48;98172.13;;;10.52;100.00
55914;BME280;58179;48.776;9.124;2022-10-03T00:31:19;98182.47;;;10.54;100.00
55914;BME280;58179;48.776;9.124;2022-10-03T00:34:04;98176.72;;;10.57;100.00
55914;BME280;58179;48.776;9.124;2022-10-03T00:36:41;98181.56;;;10.60;100.00
55914;BME280;58179;48.776;9.124;2022-10-03T00:39:35;98177.06;;;10.60;100.00
55914;BME280;58179;48.776;9.124;2022-10-03T00:42:51;98179.47;;;10.62;100.00
55914;BME280;58179;48.776;9.124;2022-10-03T00:46:01;98198.59;;;10.64;100.00
55914;BME280;58179;48.776;9.124;2022-10-03T00:49:29;98195.72;;;10.65;100.00
55914;BME280;58179;48.776;9.124;2022-10-03T00:52:28;98194.09;;;10.64;100.00
55914;BME280;58179;48.776;9.124;2022-10-03T00:55:09;98190.06;;;10.62;100.00
55914;BME280;58179;48.776;9.124;2022-10-03T00:58:02;98194.31;;;10.63;100.00
55914;BME280;58179;48.776;9.124;2022-10-03T01:00:34;98195.34;;;10.62;100.00
55914;BME280;58179;48.776;9.124;2022-10-03T01:03:38;98187.63;;;10.60;100.00
55914;BME280;58179;48.776;9.124;2022-10-03T01:06:19;98185.69;;;10.56;100.00
55914;BME280;58179;48.776;9.124;2022-10-03T01:09:17;98188.03;;;10.52;100.00
55914;BME280;58179;48.776;9.124;2022-10-03T01:12:00;98188.47;;;10.49;100.00
55914;BME280;58179;48.776;9.124;2022-10-03T01:15:00;98189.16;;;10.44;100.00
55914;BME280;58179;48.776;9.124;2022-10-03T01:17:41;98176.03;;;10.38;100.00
55914;BME280;58179;48.776;9.124;2022-10-03T01:20:24;98175.13;;;10.32;100.00
55914;BME280;58179;48.776;9.124;2022-10-03T01:26:07;98189.50;;;10.25;100.00
55914;BME280;58179;48.776;9.124;2022-10-03T01:28:48;98197.91;;;10.22;100.00
55914;BME280;58179;48.776;9.124;2022-10-03T01:31:43;98188.97;;;10.16;100.00
55914;BME280;58179;48.776;9.124;2022-10-03T01:34:21;98185.78;;;10.14;100.00
55914;BME280;58179;48.776;9.124;2022-10-03T01:36:59;98178.06;;;10.13;100.00
55914;BME280;58179;48.776;9.124;2022-10-03T01:39:36;98197.50;;;10.06;100.00
55914;BME280;58179;48.776;9.124;2022-10-03T01:42:11;98191.50;;;9.99;100.00
55914;BME280;58179;48.776;9.124;2022-10-03T01:44:59;98198.72;;;9.92;100.00
55914;BME280;58179;48.776;9.124;2022-10-03T01:47:35;98204.25;;;9.91;100.00
55914;BME280;58179;48.776;9.124;2022-10-03T01:50:12;98199.06;;;9.84;100.00
55914;BME280;58179;48.776;9.124;2022-10-03T01:52:52;98215.38;;;9.81;100.00
55914;BME280;58179;48.776;9.124;2022-10-03T01:55:30;98221.91;;;9.79;100.00
55914;BME280;58179;48.776;9.124;2022-10-03T01:58:04;98226.38;;;9.78;100.00
55914;BME280;58179;48.776;9.124;2022-10-03T02:00:44;98226.31;;;9.85;100.00
55914;BME280;58179;48.776;9.124;2022-10-03T02:03:19;98232.16;;;9.87;100.00
55914;BME280;58179;48.776;9.124;2022-10-03T02:05:53;98234.81;;;9.87;100.00
55914;BME280;58179;48.776;9.124;2022-10-03T02:08:32;98236.91;;;9.96;100.00
55914;BME280;58179;48.776;9.124;2022-10-03T02:11:10;98228.53;;;9.99;100.00
55914;BME280;58179;48.776;9.124;2022-10-03T02:13:52;98241.06;;;10.04;100.00
55914;BME280;58179;48.776;9.124;2022-10-03T02:16:30;98236.13;;;10.07;100.00
55914;BME280;58179;48.776;9.124;2022-10-03T02:19:04;98243.41;;;10.12;100.00
55914;BME280;58179;48.776;9.124;2022-10-03T02:21:33;98246.38;;;10.16;100.00
55914;BME280;58179;48.776;9.124;2022-10-03T02:24:27;98241.47;;;10.19;100.00
55914;BME280;58179;48.776;9.124;2022-10-03T02:27:20;98244.63;;;10.28;100.00
55914;BME280;58179;48.776;9.124;2022-10-03T02:30:17;98235.88;;;10.27;100.00
55914;BME280;58179;48.776;9.124;2022-10-03T02:33:33;98237.59;;;10.33;100.00
55914;BME280;58179;48.776;9.124;2022-10-03T02:36:47;98241.28;;;10.32;100.00
55914;BME280;58179;48.776;9.124;2022-10-03T02:39:40;98240.56;;;10.25;100.00
55914;BME280;58179;48.776;9.124;2022-10-03T02:42:49;98232.53;;;10.20;100.00
55914;BME280;58179;48.776;9.124;2022-10-03T02:46:03;98230.31;;;10.17;100.00
55914;BME280;58179;48.776;9.124;2022-10-03T02:49:01;98233.63;;;10.13;100.00
55914;BME280;58179;48.776;9.124;2022-10-03T02:52:03;98233.72;;;10.06;100.00
55914;BME280;58179;48.776;9.124;2022-10-03T02:54:58;98236.81;;;10.03;100.00
55914;BME280;58179;48.776;9.124;2022-10-03T02:58:02;98230.94;;;10.01;100.00
55914;BME280;58179;48.776;9.124;2022-10-03T03:00:46;98225.75;;;9.94;100.00
55914;BME280;58179;48.776;9.124;2022-10-03T03:04:00;98231.34;;;9.86;100.00
55914;BME280;58179;48.776;9.124;2022-10-03T03:09:56;98235.81;;;9.74;100.00
55914;BME280;58179;48.776;9.124;2022-10-03T03:12:47;98224.06;;;9.70;100.00
55914;BME280;58179;48.776;9.124;2022-10-03T03:16:13;98223.94;;;9.65;100.00
55914;BME280;58179;48.776;9.124;2022-10-03T03:19:03;98228.72;;;9.56;100.00
55914;BME280;58179;48.776;9.124;2022-10-03T03:21:43;98232.25;;;9.50;100.00
55914;BME280;58179;48.776;9.124;2022-10-03T03:24:34;98229.28;;;9.47;100.00
55914;BME280;58179;48.776;9.124;2022-10-03T03:27:35;98232.56;;;9.42;100.00
55914;BME280;58179;48.776;9.124;2022-10-03T03:30:10;98226.69;;;9.40;100.00
55914;BME280;58179;48.776;9.124;2022-10-03T03:33:01;98232.44;;;9.37;100.00
55914;BME280;58179;48.776;9.124;2022-10-03T03:35:46;98234.28;;;9.37;100.00
55914;BME280;58179;48.776;9.124;2022-10-03T03:38:27;98234.47;;;9.35;100.00
55914;BME280;58179;48.776;9.124;2022-10-03T03:41:05;98231.63;;;9.37;100.00
55914;BME280;58179;48.776;9.124;2022-10-03T03:43:48;98232.34;;;9.44;100.00
55914;BME280;58179;48.776;9.124;2022-10-03T03:46:31;98235.66;;;9.39;100.00
55914;BME280;58179;48.776;9.124;2022-10-03T03:49:26;98237.84;;;9.42;100.00
55914;BME280;58179;48.776;9.124;2022-10-03T03:52:10;98232.56;;;9.42;100.00
55914;BME280;58179;48.776;9.124;2022-10-03T03:55:12;98233.16;;;9.44;100.00
55914;BME280;58179;48.776;9.124;2022-10-03T04:01:04;98238.34;;;9.51;100.00
55914;BME280;58179;48.776;9.124;2022-10-03T04:03:48;98231.81;;;9.53;100.00
55914;BME280;58179;48.776;9.124;2022-10-03T04:06:35;98239.50;;;9.55;100.00
55914;BME280;58179;48.776;9.124;2022-10-03T04:09:23;98245.16;;;9.58;100.00
55914;BME280;58179;48.776;9.124;2022-10-03T04:12:02;98252.06;;;9.59;100.00
55914;BME280;58179;48.776;9.124;2022-10-03T04:14:57;98243.34;;;9.59;100.00
55914;BME280;58179;48.776;9.124;2022-10-03T04:17:43;98245.38;;;9.57;100.00
55914;BME280;58179;48.776;9.124;2022-10-03T04:20:56;98244.66;;;9.50;100.00
55914;BME280;58179;48.776;9.124;2022-10-03T04:23:40;98234.91;;;9.50;100.00
55914;BME280;58179;48.776;9.124;2022-10-03T04:26:33;98243.25;;;9.47;100.00
55914;BME280;58179;48.776;9.124;2022-10-03T04:29:43;98254.88;;;9.46;100.00
55914;BME280;58179;48.776;9.124;2022-10-03T04:32:31;98241.50;;;9.41;100.00
55914;BME280;58179;48.776;9.124;2022-10-03T04:35:17;98244.41;;;9.40;100.00
55914;BME280;58179;48.776;9.124;2022-10-03T04:37:51;98247.69;;;9.35;100.00
55914;BME280;58179;48.776;9.124;2022-10-03T04:40:29;98249.75;;;9.33;100.00
55914;BME280;58179;48.776;9.124;2022-10-03T04:43:12;98254.22;;;9.32;100.00
55914;BME280;58179;48.776;9.124;2022-10-03T04:45:55;98258.25;;;9.35;100.00
55914;BME280;58179;48.776;9.124;2022-10-03T04:48:32;98254.81;;;9.35;100.00
55914;BME280;58179;48.776;9.124;2022-10-03T04:51:11;98261.50;;;9.37;100.00
55914;BME280;58179;48.776;9.124;2022-10-03T04:53:49;98259.00;;;9.42;100.00
55914;BME280;58179;48.776;9.124;2022-10-03T04:56:33;98268.09;;;9.46;100.00
55914;BME280;58179;48.776;9.124;2022-10-03T04:59:40;98263.53;;;9.53;100.00
55914;BME280;58179;48.776;9.124;2022-10-03T05:02:23;98263.66;;;9.58;100.00
55914;BME280;58179;48.776;9.124;2022-10-03T05:05:39;98270.34;;;9.61;100.00
55914;BME280;58179;48.776;9.124;2022-10-03T05:08:25;98276.22;;;9.63;100.00
55914;BME280;58179;48.776;9.124;2022-10-03T05:11:12;98270.69;;;9.64;100.00
55914;BME280;58179;48.776;9.124;2022-10-03T05:13:55;98263.81;;;9.63;100.00
55914;BME280;58179;48.776;9.124;2022-10-03T05:16:36;98270.91;;;9.63;100.00
55914;BME280;58179;48.776;9.124;2022-10-03T05:19:28;98273.94;;;9.66;100.00
55914;BME280;58179;48.776;9.124;2022-10-03T05:22:07;98273.72;;;9.68;100.00
55914;BME280;58179;48.776;9.124;2022-10-03T05:24:42;98277.75;;;9.70;100.00
55914;BME280;58179;48.776;9.124;2022-10-03T05:27:24;98271.41;;;9.71;100.00
55914;BME280;58179;48.776;9.124;2022-10-03T05:29:58;98272.00;;;9.74;100.00
55914;BME280;58179;48.776;9.124;2022-10-03T05:32:34;98281.56;;;9.75;100.00
55914;BME280;58179;48.776;9.124;2022-10-03T05:35:27;98283.41;;;9.74;100.00
55914;BME280;58179;48.776;9.124;2022-10-03T05:38:26;98292.84;;;9.82;100.00
55914;BME280;58179;48.776;9.124;2022-10-03T05:41:07;98298.50;;;9.85;100.00
55914;BME280;58179;48.776;9.124;2022-10-03T05:43:46;98302.75;;;9.86;100.00
55914;BME280;58179;48.776;9.124;2022-10-03T05:46:28;98303.56;;;9.87;100.00
55914;BME280;58179;48.776;9.124;2022-10-03T05:49:16;98312.31;;;9.87;100.00
55914;BME280;58179;48.776;9.124;2022-10-03T05:52:05;98314.06;;;9.93;100.00
55914;BME280;58179;48.776;9.124;2022-10-03T05:54:53;98320.97;;;9.94;100.00
55914;BME280;58179;48.776;9.124;2022-10-03T05:58:07;98327.88;;;9.95;100.00
55914;BME280;58179;48.776;9.124;2022-10-03T06:00:56;98327.06;;;9.95;100.00
55914;BME280;58179;48.776;9.124;2022-10-03T06:03:55;98325.59;;;9.99;100.00
55914;BME280;58179;48.776;9.124;2022-10-03T06:06:33;98330.38;;;9.90;100.00
55914;BME280;58179;48.776;9.124;2022-10-03T06:09:43;98327.75;;;9.90;100.00
55914;BME280;58179;48.776;9.124;2022-10-03T06:12:21;98323.81;;;9.93;100.00
55914;BME280;58179;48.776;9.124;2022-10-03T06:15:23;98327.53;;;9.92;100.00
55914;BME280;58179;48.776;9.124;2022-10-03T06:18:10;98324.28;;;9.90;100.00
55914;BME280;58179;48.776;9.124;2022-10-03T06:21:41;98330.69;;;9.82;100.00
55914;BME280;58179;48.776;9.124;2022-10-03T06:24:56;98333.53;;;9.81;100.00
55914;BME280;58179;48.776;9.124;2022-10-03T06:28:40;98333.94;;;9.84;100.00
55914;BME280;58179;48.776;9.124;2022-10-03T06:35:03;98346.88;;;10.04;100.00
55914;BME280;58179;48.776;9.124;2022-10-03T06:41:32;98343.97;;;10.24;100.00
55914;BME280;58179;48.776;9.124;2022-10-03T06:44:27;98355.06;;;10.32;100.00
55914;BME280;58179;48.776;9.124;2022-10-03T06:47:25;98356.09;;;10.31;100.00
55914;BME280;58179;48.776;9.124;2022-10-03T06:50:40;98354.34;;;10.25;100.00
55914;BME280;58179;48.776;9.124;2022-10-03T06:53:30;98362.50;;;10.24;100.00
55914;BME280;58179;48.776;9.124;2022-10-03T06:56:17;98365.97;;;10.24;100.00
55914;BME280;58179;48.776;9.124;2022-10-03T07:02:38;98365.06;;;10.30;100.00
55914;BME280;58179;48.776;9.124;2022-10-03T07:06:11;98358.09;;;10.36;100.00
55914;BME280;58179;48.776;9.124;2022-10-03T07:12:43;98373.28;;;10.40;100.00
55914;BME280;58179;48.776;9.124;2022-10-03T07:22:21;98380.28;;;10.35;100.00
55914;BME280;58179;48.776;9.124;2022-10-03T07:28:53;98389.84;;;10.36;100.00
55914;BME280;58179;48.776;9.124;2022-10-03T07:31:38;98392.72;;;10.34;100.00
55914;BME280;58179;48.776;9.124;2022-10-03T07:38:07;98398.00;;;10.34;100.00
55914;BME280;58179;48.776;9.124;2022-10-03T07:41:39;98394.31;;;10.35;100.00
55914;BME280;58179;48.776;9.124;2022-10-03T07:44:38;98398.59;;;10.36;100.00
55914;BME280;58179;48.776;9.124;2022-10-03T07:47:58;98396.75;;;10.37;100.00
55914;BME280;58179;48.776;9.124;2022-10-03T07:51:01;98388.34;;;10.40;100.00
55914;BME280;58179;48.776;9.124;2022-10-03T07:54:15;98391.59;;;10.42;100.00
55914;BME280;58179;48.776;9.124;2022-10-03T07:57:36;98396.78;;;10.48;100.00
55914;BME280;58179;48.776;9.124;2022-10-03T08:00:19;98395.84;;;10.43;100.00
55914;BME280;58179;48.776;9.124;2022-10-03T08:06:20;98397.91;;;10.41;100.00
55914;BME280;58179;48.776;9.124;2022-10-03T08:09:26;98399.53;;;10.42;100.00
55914;BME280;58179;48.776;9.124;2022-10-03T08:12:32;98398.84;;;10.46;100.00
55914;BME280;58179;48.776;9.124;2022-10-03T08:15:10;98410.59;;;10.51;100.00
55914;BME280;58179;48.776;9.124;2022-10-03T08:18:04;98411.31;;;10.58;100.00
55914;BME280;58179;48.776;9.124;2022-10-03T08:20:54;98418.56;;;10.62;100.00
55914;BME280;58179;48.776;9.124;2022-10-03T08:23:43;98423.22;;;10.67;100.00
55914;BME280;58179;48.776;9.124;2022-10-03T08:26:20;98416.63;;;10.69;100.00
55914;BME280;58179;48.776;9.124;2022-10-03T08:29:07;98420.00;;;10.76;100.00
55914;BME280;58179;48.776;9.124;2022-10-03T08:32:22;98413.44;;;10.79;100.00
55914;BME280;58179;48.776;9.124;2022-10-03T08:35:30;98416.91;;;10.79;100.00
55914;BME280;58179;48.776;9.124;2022-10-03T08:38:36;98420.56;;;10.78;100.00
55914;BME280;58179;48.776;9.124;2022-10-03T08:42:22;98418.38;;;10.75;100.00
55914;BME280;58179;48.776;9.124;2022-10-03T08:45:22;98427.59;;;10.73;100.00
55914;BME280;58179;48.776;9.124;2022-10-03T08:48:39;98426.19;;;10.70;100.00
55914;BME280;58179;48.776;9.124;2022-10-03T08:51:55;98422.16;;;10.68;100.00
55914;BME280;58179;48.776;9.124;2022-10-03T08:54:53;98423.53;;;10.70;100.00
55914;BME280;58179;48.776;9.124;2022-10-03T08:57:43;98417.44;;;10.70;100.00
55914;BME280;58179;48.776;9.124;2022-10-03T09:00:19;98420.09;;;10.70;100.00
55914;BME280;58179;48.776;9.124;2022-10-03T09:16:38;98434.31;;;10.87;100.00
55914;BME280;58179;48.776;9.124;2022-10-03T09:26:04;98414.28;;;11.14;100.00
55914;BME280;58179;48.776;9.124;2022-10-03T09:29:03;98416.75;;;11.28;100.00
55914;BME280;58179;48.776;9.124;2022-10-03T09:35:30;98410.59;;;11.50;100.00
55914;BME280;58179;48.776;9.124;2022-10-03T09:38:43;98408.06;;;11.67;100.00
55914;BME280;58179;48.776;9.124;2022-10-03T09:41:52;98395.97;;;11.71;100.00
55914;BME280;58179;48.776;9.124;2022-10-03T09:44:40;98396.69;;;11.78;100.00
55914;BME280;58179;48.776;9.124;2022-10-03T09:51:12;98388.31;;;11.98;100.00
55914;BME280;58179;48.776;9.124;2022-10-03T09:58:03;98390.72;;;12.39;100.00
55914;BME280;58179;48.776;9.124;2022-10-03T10:00:50;98399.06;;;12.48;100.00
55914;BME280;58179;48.776;9.124;2022-10-03T10:07:29;98392.97;;;12.19;100.00
55914;BME280;58179;48.776;9.124;2022-10-03T10:20:00;98408.94;;;12.08;100.00
55914;BME280;58179;48.776;9.124;2022-10-03T10:23:12;98404.53;;;12.13;100.00
55914;BME280;58179;48.776;9.124;2022-10-03T10:26:30;98407.09;;;12.08;100.00
55914;BME280;58179;48.776;9.124;2022-10-03T10:29:30;98407.19;;;12.13;100.00
55914;BME280;58179;48.776;9.124;2022-10-03T10:36:04;98411.97;;;12.39;100.00
55914;BME280;58179;48.776;9.124;2022-10-03T10:39:31;98419.88;;;12.51;100.00
55914;BME280;58179;48.776;9.124;2022-10-03T10:45:36;98419.91;;;12.39;100.00
55914;BME280;58179;48.776;9.124;2022-10-03T11:02:43;98412.78;;;12.85;100.00
55914;BME280;58179;48.776;9.124;2022-10-03T11:05:52;98400.75;;;12.83;100.00
55914;BME280;58179;48.776;9.124;2022-10-03T11:09:19;98407.94;;;12.82;100.00
55914;BME280;58179;48.776;9.124;2022-10-03T11:19:19;98398.09;;;13.49;100.00
55914;BME280;58179;48.776;9.124;2022-10-03T11:25:30;98399.72;;;13.50;100.00
55914;BME280;58179;48.776;9.124;2022-10-03T11:28:44;98403.94;;;13.30;100.00
55914;BME280;58179;48.776;9.124;2022-10-03T11:32:02;98404.63;;;13.08;100.00
55914;BME280;58179;48.776;9.124;2022-10-03T11:37:42;98399.72;;;13.34;100.00
55914;BME280;58179;48.776;9.124;2022-10-03T11:40:30;98400.59;;;13.56;100.00
55914;BME280;58179;48.776;9.124;2022-10-03T11:46:40;98393.81;;;13.87;100.00
55914;BME280;58179;48.776;9.124;2022-10-03T11:49:30;98396.66;;;14.02;100.00
55914;BME280;58179;48.776;9.124;2022-10-03T11:52:22;98400.41;;;14.06;100.00
55914;BME280;58179;48.776;9.124;2022-10-03T11:55:16;98390.56;;;14.07;100.00
55914;BME280;58179;48.776;9.124;2022-10-03T11:57:55;98384.91;;;14.20;100.00
55914;BME280;58179;48.776;9.124;2022-10-03T12:00:24;98383.69;;;14.32;100.00
55914;BME280;58179;48.776;9.124;2022-10-03T12:03:11;98386.19;;;14.39;100.00
55914;BME280;58179;48.776;9.124;2022-10-03T12:05:49;98382.97;;;13.93;100.00
55914;BME280;58179;48.776;9.124;2022-10-03T12:08:30;98382.09;;;14.10;100.00
55914;BME280;58179;48.776;9.124;2022-10-03T12:11:19;98381.47;;;14.24;100.00
55914;BME280;58179;48.776;9.124;2022-10-03T12:14:05;98379.63;;;14.25;100.00
55914;BME280;58179;48.776;9.124;2022-10-03T12:16:55;98373.19;;;14.43;100.00
55914;BME280;58179;48.776;9.124;2022-10-03T12:19:29;98376.00;;;14.58;100.00
55914;BME280;58179;48.776;9.124;2022-10-03T12:22:02;98378.13;;;14.61;100.00
55914;BME280;58179;48.776;9.124;2022-10-03T12:24:36;98383.47;;;14.61;100.00
55914;BME280;58179;48.776;9.124;2022-10-03T12:27:15;98374.56;;;14.77;100.00
55914;BME280;58179;48.776;9.124;2022-10-03T12:29:54;98360.38;;;15.03;100.00
55914;BME280;58179;48.776;9.124;2022-10-03T12:32:35;98350.44;;;15.31;100.00
55914;BME280;58179;48.776;9.124;2022-10-03T12:35:24;98350.44;;;15.31;100.00
55914;BME280;58179;48.776;9.124;2022-10-03T12:38:11;98350.94;;;15.28;100.00
55914;BME280;58179;48.776;9.124;2022-10-03T12:40:44;98352.09;;;15.05;100.00
55914;BME280;58179;48.776;9.124;2022-10-03T12:43:31;98350.38;;;14.89;100.00
55914;BME280;58179;48.776;9.124;2022-10-03T12:46:11;98359.13;;;14.79;100.00
55914;BME280;58179;48.776;9.124;2022-10-03T12:48:44;98355.06;;;14.71;100.00
55914;BME280;58179;48.776;9.124;2022-10-03T12:51:37;98349.66;;;14.66;100.00
55914;BME280;58179;48.776;9.124;2022-10-03T12:54:20;98346.41;;;14.59;100.00
55914;BME280;58179;48.776;9.124;2022-10-03T12:57:18;98334.66;;;14.55;100.00
55914;BME280;58179;48.776;9.124;2022-10-03T12:59:52;98338.78;;;14.41;100.00
55914;BME280;58179;48.776;9.124;2022-10-03T13:02:31;98339.03;;;14.40;100.00
55914;BME280;58179;48.776;9.124;2022-10-03T13:05:38;98340.28;;;14.32;100.00
55914;BME280;58179;48.776;9.124;2022-10-03T13:08:31;98337.56;;;14.27;100.00
55914;BME280;58179;48.776;9.124;2022-10-03T13:11:16;98332.97;;;14.22;100.00
55914;BME280;58179;48.776;9.124;2022-10-03T13:14:04;98332.44;;;14.20;100.00
55914;BME280;58179;48.776;9.124;2022-10-03T13:16:40;98337.81;;;14.25;100.00
55914;BME280;58179;48.776;9.124;2022-10-03T13:19:12;98335.19;;;14.30;100.00
55914;BME280;58179;48.776;9.124;2022-10-03T13:21:56;98337.13;;;14.35;100.00
55914;BME280;58179;48.776;9.124;2022-10-03T13:24:35;98327.91;;;14.43;100.00
55914;BME280;58179;48.776;9.124;2022-10-03T13:27:29;98336.47;;;14.50;100.00
55914;BME280;58179;48.776;9.124;2022-10-03T13:30:05;98337.56;;;14.54;100.00
55914;BME280;58179;48.776;9.124;2022-10-03T13:32:41;98334.94;;;14.59;100.00
55914;BME280;58179;48.776;9.124;2022-10-03T13:35:24;98329.22;;;14.72;100.00
55914;BME280;58179;48.776;9.124;2022-10-03T13:38:58;98320.88;;;15.00;100.00
55914;BME280;58179;48.776;9.124;2022-10-03T13:41:57;98320.44;;;15.14;100.00
55914;BME280;58179;48.776;9.124;2022-10-03T13:44:35;98319.69;;;15.18;100.00
55914;BME280;58179;48.776;9.124;2022-10-03T13:47:19;98324.97;;;15.13;100.00
55914;BME280;58179;48.776;9.124;2022-10-03T13:49:53;98331.19;;;15.24;100.00
55914;BME280;58179;48.776;9.124;2022-10-03T13:52:30;98323.13;;;15.19;100.00
55914;BME280;58179;48.776;9.124;2022-10-03T13:55:18;98328.44;;;15.14;100.00
55914;BME280;58179;48.776;9.124;2022-10-03T13:58:10;98321.75;;;15.11;100.00
55914;BME280;58179;48.776;9.124;2022-10-03T14:00:59;98319.25;;;15.41;100.00
55914;BME280;58179;48.776;9.124;2022-10-03T14:03:34;98315.94;;;15.61;100.00
55914;BME280;58179;48.776;9.124;2022-10-03T14:06:15;98313.69;;;16.00;100.00
55914;BME280;58179;48.776;9.124;2022-10-03T14:09:25;98311.28;;;16.24;100.00
55914;BME280;58179;48.776;9.124;2022-10-03T14:12:04;98303.06;;;16.56;100.00
55914;BME280;58179;48.776;9.124;2022-10-03T14:14:57;98301.19;;;16.92;100.00
55914;BME280;58179;48.776;9.124;2022-10-03T14:17:39;98299.25;;;17.43;100.00
55914;BME280;58179;48.776;9.124;2022-10-03T14:20:21;98292.03;;;18.03;100.00
55914;BME280;58179;48.776;9.124;2022-10-03T14:23:15;98297.59;;;18.50;100.00
55914;BME280;58179;48.776;9.124;2022-10-03T14:25:46;98296.44;;;18.95;100.00
55914;BME280;58179;48.776;9.124;2022-10-03T14:28:20;98289.03;;;19.64;100.00
55914;BME280;58179;48.776;9.124;2022-10-03T14:31:01;98298.09;;;20.48;98.50
55914;BME280;58179;48.776;9.124;2022-10-03T14:33:35;98284.50;;;20.58;72.30
55914;BME280;58179;48.776;9.124;2022-10-03T14:36:23;98285.06;;;21.61;86.77
55914;BME280;58179;48.776;9.124;2022-10-03T14:39:06;98281.25;;;22.03;84.69
55914;BME280;58179;48.776;9.124;2022-10-03T14:41:46;98278.38;;;21.99;81.64
55914;BME280;58179;48.776;9.124;2022-10-03T14:44:18;98281.00;;;21.63;78.05
55914;BME280;58179;48.776;9.124;2022-10-03T14:46:50;98275.19;;;21.43;79.96
55914;BME280;58179;48.776;9.124;2022-10-03T14:49:24;98268.72;;;21.44;79.29
55914;BME280;58179;48.776;9.124;2022-10-03T14:51:58;98267.91;;;21.71;77.41
55914;BME280;58179;48.776;9.124;2022-10-03T14:54:27;98270.22;;;21.63;77.33
55914;BME280;58179;48.776;9.124;2022-10-03T14:56:54;98274.50;;;21.65;76.92
55914;BME280;58179;48.776;9.124;2022-10-03T14:59:26;98263.53;;;21.61;73.55
55914;BME280;58179;48.776;9.124;2022-10-03T15:01:56;98276.28;;;21.69;77.19
55914;BME280;58179;48.776;9.124;2022-10-03T15:04:31;98267.81;;;21.62;77.52
55914;BME280;58179;48.776;9.124;2022-10-03T15:07:00;98267.84;;;21.35;77.95
55914;BME280;58179;48.776;9.124;2022-10-03T15:09:32;98265.44;;;20.87;81.38
55914;BME280;58179;48.776;9.124;2022-10-03T15:12:10;98263.44;;;19.90;68.79
55914;BME280;58179;48.776;9.124;2022-10-03T15:14:41;98270.91;;;19.27;80.94
55914;BME280;58179;48.776;9.124;2022-10-03T15:17:18;98273.34;;;18.71;86.53
55914;BME280;58179;48.776;9.124;2022-10-03T15:19:48;98269.63;;;18.28;90.01
55914;BME280;58179;48.776;9.124;2022-10-03T15:22:27;98268.75;;;17.98;92.69
55914;BME280;58179;48.776;9.124;2022-10-03T15:24:58;98271.81;;;17.76;97.69
55914;BME280;58179;48.776;9.124;2022-10-03T15:27:26;98272.41;;;17.53;95.95
55914;BME280;58179;48.776;9.124;2022-10-03T15:29:54;98263.94;;;17.31;97.49
55914;BME280;58179;48.776;9.124;2022-10-03T15:32:26;98269.63;;;17.09;96.55
55914;BME280;58179;48.776;9.124;2022-10-03T15:34:58;98266.16;;;16.93;97.67
55914;BME280;58179;48.776;9.124;2022-10-03T15:37:30;98258.97;;;16.63;89.41
55914;BME280;58179;48.776;9.124;2022-10-03T15:40:05;98256.03;;;16.45;92.21
55914;BME280;58179;48.776;9.124;2022-10-03T15:42:32;98263.50;;;16.27;92.75
55914;BME280;58179;48.776;9.124;2022-10-03T15:45:18;98256.00;;;16.14;97.78
55914;BME280;58179;48.776;9.124;2022-10-03T15:47:46;98255.44;;;16.02;98.36
55914;BME280;58179;48.776;9.124;2022-10-03T15:50:19;98255.19;;;15.94;99.42
55914;BME280;58179;48.776;9.124;2022-10-03T15:52:51;98257.28;;;15.86;100.00
55914;BME280;58179;48.776;9.124;2022-10-03T15:55:23;98257.00;;;15.78;100.00
55914;BME280;58179;48.776;9.124;2022-10-03T15:57:58;98259.38;;;15.69;100.00
55914;BME280;58179;48.776;9.124;2022-10-03T16:00:28;98258.03;;;15.62;100.00
55914;BME280;58179;48.776;9.124;2022-10-03T16:03:06;98254.22;;;15.53;100.00
55914;BME280;58179;48.776;9.124;2022-10-03T16:05:35;98255.50;;;15.40;100.00
55914;BME280;58179;48.776;9.124;2022-10-03T16:08:07;98259.19;;;15.29;100.00
55914;BME280;58179;48.776;9.124;2022-10-03T16:10:38;98259.91;;;15.14;100.00
55914;BME280;58179;48.776;9.124;2022-10-03T16:13:19;98261.44;;;15.00;100.00
55914;BME280;58179;48.776;9.124;2022-10-03T16:16:15;98266.66;;;14.85;100.00
55914;BME280;58179;48.776;9.124;2022-10-03T16:19:18;98260.41;;;14.69;99.15
55914;BME280;58179;48.776;9.124;2022-10-03T16:21:47;98254.97;;;14.54;100.00
55914;BME280;58179;48.776;9.124;2022-10-03T16:24:28;98253.81;;;14.40;100.00
55914;BME280;58179;48.776;9.124;2022-10-03T16:27:07;98253.88;;;14.23;100.00
55914;BME280;58179;48.776;9.124;2022-10-03T16:29:37;98253.00;;;14.12;100.00
55914;BME280;58179;48.776;9.124;2022-10-03T16:32:09;98240.69;;;14.06;100.00
55914;BME280;58179;48.776;9.124;2022-10-03T16:34:43;98249.41;;;13.97;100.00
55914;BME280;58179;48.776;9.124;2022-10-03T16:37:17;98247.13;;;13.83;100.00
55914;BME280;58179;48.776;9.124;2022-10-03T16:39:54;98260.22;;;13.63;99.82
55914;BME280;58179;48.776;9.124;2022-10-03T16:42:24;98257.59;;;13.46;100.00
55914;BME280;58179;48.776;9.124;2022-10-03T16:44:52;98255.56;;;13.32;100.00